createdAt,value
2023-04-03T00:00:42.276Z,1.53
2023-04-03T00:01:45.506Z,1.53
2023-04-03T00:02:47.426Z,1.53
2023-04-03T00:03:51.039Z,1.54
2023-04-03T00:04:56.962Z,1.55
2023-04-03T00:06:00.373Z,1.53
2023-04-03T00:07:03.143Z,1.53
2023-04-03T00:08:08.575Z,1.53
2023-04-03T00:09:11.348Z,1.53
2023-04-03T00:10:13.502Z,1.52
2023-04-03T00:11:17.068Z,1.52
2023-04-03T00:12:18.900Z,1.53
2023-04-03T00:13:21.685Z,1.52
2023-04-03T00:14:23.550Z,1.52
2023-04-03T00:15:26.455Z,1.52
2023-04-03T00:16:28.345Z,1.52
2023-04-03T00:17:31.181Z,1.52
2023-04-03T00:18:33.040Z,1.52
2023-04-03T00:19:35.879Z,1.53
2023-04-03T00:20:38.156Z,1.52
2023-04-03T00:21:42.516Z,1.52
2023-04-03T00:22:44.340Z,1.52
2023-04-03T00:23:47.236Z,1.51
2023-04-03T00:24:49.047Z,1.51
2023-04-03T00:25:52.179Z,1.52
2023-04-03T00:26:54.446Z,1.52
2023-04-03T00:27:57.211Z,1.53
2023-04-03T00:28:59.066Z,1.53
2023-04-03T00:30:01.897Z,1.54
2023-04-03T00:31:06.123Z,1.54
2023-04-03T00:32:08.885Z,1.53
2023-04-03T00:33:12.314Z,1.53
2023-04-03T00:34:15.035Z,1.55
2023-04-03T00:35:17.211Z,1.54
2023-04-03T00:36:20.280Z,1.53
2023-04-03T00:37:23.527Z,1.54
2023-04-03T00:38:26.397Z,1.52
2023-04-03T00:39:28.542Z,1.52
2023-04-03T00:40:36.241Z,1.51
2023-04-03T00:41:38.230Z,1.51
2023-04-03T00:42:44.312Z,1.50
2023-04-03T00:43:46.161Z,1.51
2023-04-03T00:45:28.218Z,1.50
2023-04-03T00:46:31.493Z,1.44
2023-04-03T00:47:34.425Z,1.41
2023-04-03T00:48:39.975Z,1.37
2023-04-03T00:49:42.244Z,1.37
2023-04-03T00:50:45.377Z,1.34
2023-04-03T00:51:47.585Z,1.32
2023-04-03T00:52:51.972Z,1.29
2023-04-03T00:53:58.035Z,1.29
2023-04-03T00:55:03.667Z,1.27
2023-04-03T00:56:08.406Z,1.26
2023-04-03T00:57:11.845Z,1.25
2023-04-03T00:58:15.518Z,1.25
2023-04-03T00:59:23.098Z,1.23
2023-04-03T01:00:27.110Z,1.23
2023-04-03T01:01:30.673Z,1.22
2023-04-03T01:02:35.600Z,1.21
2023-04-03T01:03:39.009Z,1.21
2023-04-03T01:04:43.629Z,1.19
2023-04-03T01:05:46.569Z,1.19
2023-04-03T01:06:48.379Z,1.19
2023-04-03T01:07:53.446Z,1.18
2023-04-03T01:08:56.258Z,1.17
2023-04-03T01:10:01.423Z,1.16
2023-04-03T01:11:03.600Z,1.17
2023-04-03T01:12:17.816Z,1.16
2023-04-03T01:13:25.347Z,1.19
2023-04-03T01:14:27.230Z,1.18
2023-04-03T01:15:33.804Z,1.19
2023-04-03T01:16:35.833Z,1.20
2023-04-03T01:17:40.639Z,1.20
2023-04-03T01:18:43.769Z,1.21
2023-04-03T01:19:56.021Z,1.21
2023-04-03T01:21:22.642Z,1.22
2023-04-03T01:22:27.456Z,1.22
2023-04-03T01:23:39.519Z,1.22
2023-04-03T01:24:42.314Z,1.22
2023-04-03T01:25:49.052Z,1.22
2023-04-03T01:26:52.213Z,1.22
2023-04-03T01:27:54.412Z,1.23
2023-04-03T01:28:57.599Z,1.24
2023-04-03T01:29:59.623Z,1.25
2023-04-03T01:31:05.947Z,1.26
2023-04-03T01:32:12.184Z,1.26
2023-04-03T01:33:14.024Z,1.25
2023-04-03T01:34:17.073Z,1.26
2023-04-03T01:35:19.570Z,1.27
2023-04-03T01:36:25.550Z,1.26
2023-04-03T01:37:27.468Z,1.28
2023-04-03T01:38:30.769Z,1.28
2023-04-03T01:39:32.643Z,1.29
2023-04-03T01:40:37.122Z,1.30
2023-04-03T01:41:39.281Z,1.31
2023-04-03T01:42:49.334Z,1.32
2023-04-03T01:43:51.318Z,1.30
2023-04-03T01:44:54.181Z,1.31
2023-04-03T01:45:56.079Z,1.30
2023-04-03T01:46:59.033Z,1.29
2023-04-03T01:48:06.002Z,1.27
2023-04-03T01:49:08.807Z,1.26
2023-04-03T01:50:10.841Z,1.24
2023-04-03T01:51:14.058Z,1.22
2023-04-03T01:52:16.296Z,1.22
2023-04-03T01:53:19.081Z,1.22
2023-04-03T01:54:21.331Z,1.20
2023-04-03T01:55:24.234Z,1.20
2023-04-03T01:56:26.138Z,1.20
2023-04-03T01:57:29.220Z,1.18
2023-04-03T01:58:31.499Z,1.20
2023-04-03T01:59:34.313Z,1.18
2023-04-03T02:00:37.648Z,1.18
2023-04-03T02:01:41.563Z,1.17
2023-04-03T02:02:45.026Z,1.16
2023-04-03T02:03:49.447Z,1.14
2023-04-03T02:04:51.256Z,1.13
2023-04-03T02:05:54.945Z,1.12
2023-04-03T02:07:01.207Z,1.10
2023-04-03T02:08:04.045Z,1.09
2023-04-03T02:09:06.095Z,1.07
2023-04-03T02:10:09.536Z,1.07
2023-04-03T02:11:11.362Z,1.07
2023-04-03T02:12:14.130Z,1.06
2023-04-03T02:13:16.382Z,1.05
2023-04-03T02:14:19.170Z,1.05
2023-04-03T02:15:21.665Z,1.06
2023-04-03T02:16:24.584Z,1.04
2023-04-03T02:17:26.421Z,1.05
2023-04-03T02:18:31.410Z,1.05
2023-04-03T02:19:35.584Z,1.07
2023-04-03T02:20:39.173Z,1.06
2023-04-03T02:21:41.280Z,1.07
2023-04-03T02:22:44.433Z,1.08
2023-04-03T02:23:46.355Z,1.10
2023-04-03T02:24:49.146Z,1.08
2023-04-03T02:25:51.129Z,1.09
2023-04-03T02:26:53.883Z,1.08
2023-04-03T02:27:55.744Z,1.09
2023-04-03T02:29:00.096Z,1.07
2023-04-03T02:30:01.929Z,1.08
2023-04-03T02:31:05.743Z,1.08
2023-04-03T02:32:08.096Z,1.08
2023-04-03T02:33:12.001Z,1.08
2023-04-03T02:34:14.884Z,1.06
2023-04-03T02:35:22.129Z,1.08
2023-04-03T02:36:24.496Z,1.08
2023-04-03T02:37:32.306Z,1.08
2023-04-03T02:38:34.852Z,1.08
2023-04-03T02:39:37.742Z,1.07
2023-04-03T02:40:39.792Z,1.07
2023-04-03T02:41:42.796Z,1.07
2023-04-03T02:42:49.686Z,1.06
2023-04-03T02:43:52.480Z,1.06
2023-04-03T02:44:56.248Z,1.05
2023-04-03T02:45:59.474Z,1.04
2023-04-03T02:47:01.323Z,1.04
2023-04-03T02:48:04.814Z,1.04
2023-04-03T02:49:06.787Z,1.04
2023-04-03T02:50:10.577Z,1.02
2023-04-03T02:51:13.760Z,1.01
2023-04-03T02:52:16.590Z,1.00
2023-04-03T02:53:18.753Z,1.00
2023-04-03T02:54:28.663Z,0.98
2023-04-03T02:55:32.492Z,0.96
2023-04-03T02:56:35.401Z,0.96
2023-04-03T02:57:37.330Z,0.95
2023-04-03T02:58:40.306Z,0.95
2023-04-03T02:59:43.610Z,0.92
2023-04-03T03:00:47.682Z,0.92
2023-04-03T03:01:49.530Z,0.91
2023-04-03T03:02:52.350Z,0.89
2023-04-03T03:03:54.278Z,0.86
2023-04-03T03:04:57.214Z,0.81
2023-04-03T03:06:03.673Z,0.78
2023-04-03T03:07:08.167Z,0.75
2023-04-03T03:08:09.932Z,0.73
2023-04-03T03:09:14.005Z,0.71
2023-04-03T03:10:18.149Z,0.68
2023-04-03T03:11:23.151Z,0.61
2023-04-03T03:12:25.638Z,0.59
2023-04-03T03:13:29.648Z,0.55
2023-04-03T03:14:32.313Z,0.52
2023-04-03T03:15:35.123Z,0.49
2023-04-03T03:16:37.904Z,0.49
2023-04-03T03:17:40.765Z,0.47
2023-04-03T03:18:42.552Z,0.46
2023-04-03T03:19:46.661Z,0.42
2023-04-03T03:20:52.037Z,0.40
2023-04-03T03:21:56.063Z,0.39
2023-04-03T03:22:59.549Z,0.37
2023-04-03T03:24:02.311Z,0.35
2023-04-03T03:25:04.891Z,0.34
2023-04-03T03:26:09.406Z,0.33
2023-04-03T03:27:11.387Z,0.32
2023-04-03T03:28:14.124Z,0.29
2023-04-03T03:29:17.700Z,0.28
2023-04-03T03:30:22.402Z,0.28
2023-04-03T03:31:24.246Z,0.26
2023-04-03T03:32:27.280Z,0.24
2023-04-03T03:33:29.503Z,0.22
2023-04-03T03:34:32.404Z,0.23
2023-04-03T03:35:35.173Z,0.23
2023-04-03T03:36:39.190Z,0.22
2023-04-03T03:37:41.118Z,0.22
2023-04-03T03:38:45.614Z,0.22
2023-04-03T03:39:47.454Z,0.21
2023-04-03T03:40:51.279Z,0.20
2023-04-03T03:41:56.545Z,0.19
2023-04-03T03:42:59.630Z,0.18
2023-04-03T03:44:01.487Z,0.19
2023-04-03T03:45:09.023Z,0.16
2023-04-03T03:46:10.933Z,0.16
2023-04-03T03:47:13.737Z,0.14
2023-04-03T03:48:16.912Z,0.13
2023-04-03T03:49:19.706Z,0.13
2023-04-03T03:50:21.632Z,0.13
2023-04-03T03:51:26.764Z,0.12
2023-04-03T03:52:29.107Z,0.11
2023-04-03T03:53:32.957Z,0.13
2023-04-03T03:54:42.551Z,0.11
2023-04-03T03:55:44.637Z,0.12
2023-04-03T03:56:47.475Z,0.09
2023-04-03T03:57:50.848Z,0.10
2023-04-03T03:58:54.637Z,0.10
2023-04-03T03:59:57.039Z,0.08
2023-04-03T04:01:02.773Z,0.08
2023-04-03T04:02:04.703Z,0.06
2023-04-03T04:03:07.656Z,0.06
2023-04-03T04:04:09.891Z,0.06
2023-04-03T04:05:12.913Z,0.06
2023-04-03T04:06:14.753Z,0.05
2023-04-03T04:07:17.695Z,0.06
2023-04-03T04:08:19.569Z,0.06
2023-04-03T04:09:22.781Z,0.06
2023-04-03T04:10:26.997Z,0.04
2023-04-03T04:11:30.247Z,0.04
2023-04-03T04:12:32.275Z,0.03
2023-04-03T04:13:35.696Z,0.02
2023-04-03T04:14:37.824Z,-0.00
2023-04-03T04:15:42.231Z,-0.01
2023-04-03T04:16:44.232Z,-0.02
2023-04-03T04:17:52.384Z,-0.03
2023-04-03T04:18:54.259Z,-0.04
2023-04-03T04:19:58.950Z,-0.06
2023-04-03T04:21:01.109Z,-0.05
2023-04-03T04:22:04.337Z,-0.05
2023-04-03T04:23:08.267Z,-0.07
2023-04-03T04:24:12.615Z,-0.06
2023-04-03T04:25:14.993Z,-0.06
2023-04-03T04:26:21.241Z,-0.07
2023-04-03T04:27:23.435Z,-0.07
2023-04-03T04:28:26.319Z,-0.07
2023-04-03T04:29:29.992Z,-0.08
2023-04-03T04:30:32.970Z,-0.09
2023-04-03T04:31:35.283Z,-0.07
2023-04-03T04:32:38.397Z,-0.06
2023-04-03T04:33:41.159Z,-0.06
2023-04-03T04:34:46.471Z,-0.05
2023-04-03T04:35:51.061Z,-0.05
2023-04-03T04:36:56.217Z,-0.06
2023-04-03T04:37:58.243Z,-0.06
2023-04-03T04:39:01.201Z,-0.07
2023-04-03T04:40:04.104Z,-0.06
2023-04-03T04:41:09.741Z,-0.06
2023-04-03T04:42:17.457Z,-0.05
2023-04-03T04:43:24.973Z,-0.05
2023-04-03T04:44:30.272Z,-0.04
2023-04-03T04:45:32.575Z,-0.04
2023-04-03T04:46:35.934Z,-0.02
2023-04-03T04:47:37.987Z,-0.01
2023-04-03T04:48:41.872Z,-0.01
2023-04-03T04:49:44.428Z,-0.01
2023-04-03T04:50:47.968Z,-0.00
2023-04-03T04:51:52.309Z,-0.00
2023-04-03T04:53:00.500Z,-0.03
2023-04-03T04:54:02.333Z,-0.02
2023-04-03T04:55:06.703Z,-0.03
2023-04-03T04:56:08.839Z,-0.05
2023-04-03T04:57:13.535Z,-0.06
2023-04-03T04:58:16.799Z,-0.08
2023-04-03T04:59:21.859Z,-0.09
2023-04-03T05:00:24.640Z,-0.08
2023-04-03T05:01:27.484Z,-0.08
2023-04-03T05:02:47.960Z,-0.09
2023-04-03T05:03:50.222Z,-0.09
2023-04-03T05:04:55.547Z,-0.10
2023-04-03T05:06:03.030Z,-0.10
2023-04-03T05:07:06.732Z,-0.10
2023-04-03T05:08:12.815Z,-0.11
2023-04-03T05:09:17.082Z,-0.12
2023-04-03T05:10:21.537Z,-0.13
2023-04-03T05:11:25.161Z,-0.14
2023-04-03T05:12:28.730Z,-0.14
2023-04-03T05:13:36.047Z,-0.15
2023-04-03T05:14:39.058Z,-0.15
2023-04-03T05:15:43.552Z,-0.15
2023-04-03T05:16:46.479Z,-0.16
2023-04-03T05:17:48.522Z,-0.15
2023-04-03T05:18:52.284Z,-0.15
2023-04-03T05:19:58.316Z,-0.15
2023-04-03T05:21:03.401Z,-0.17
2023-04-03T05:22:06.125Z,-0.17
2023-04-03T05:23:09.136Z,-0.15
2023-04-03T05:24:11.490Z,-0.16
2023-04-03T05:25:17.705Z,-0.12
2023-04-03T05:26:20.156Z,-0.11
2023-04-03T05:27:25.104Z,-0.11
2023-04-03T05:28:29.619Z,-0.10
2023-04-03T05:29:33.951Z,-0.09
2023-04-03T05:30:39.167Z,-0.08
2023-04-03T05:31:41.977Z,-0.07
2023-04-03T05:32:46.431Z,-0.07
2023-04-03T05:33:54.746Z,-0.06
2023-04-03T05:35:01.170Z,-0.08
2023-04-03T05:36:05.805Z,-0.08
2023-04-03T05:37:16.019Z,-0.07
2023-04-03T05:38:19.206Z,-0.06
2023-04-03T05:39:22.020Z,-0.07
2023-04-03T05:40:25.388Z,-0.06
2023-04-03T05:41:30.774Z,-0.06
2023-04-03T05:42:33.712Z,-0.06
2023-04-03T05:43:39.922Z,-0.04
2023-04-03T05:44:47.815Z,-0.05
2023-04-03T05:45:49.914Z,-0.04
2023-04-03T05:46:52.875Z,-0.02
2023-04-03T05:47:55.550Z,-0.00
2023-04-03T05:48:58.395Z,0.02
2023-04-03T05:50:06.686Z,0.04
2023-04-03T05:51:14.980Z,0.09
2023-04-03T05:52:22.786Z,0.13
2023-04-03T05:53:28.471Z,0.13
2023-04-03T05:54:33.554Z,0.14
2023-04-03T05:55:46.791Z,0.15
2023-04-03T05:56:52.769Z,0.17
2023-04-03T05:57:57.469Z,0.20
2023-04-03T05:59:00.443Z,0.23
2023-04-03T06:00:06.617Z,0.24
2023-04-03T06:01:17.149Z,0.27
2023-04-03T06:02:22.695Z,0.33
2023-04-03T06:03:26.504Z,0.38
2023-04-03T06:04:29.501Z,0.44
2023-04-03T06:05:31.470Z,0.49
2023-04-03T06:06:46.791Z,0.54
2023-04-03T06:07:50.627Z,0.55
2023-04-03T06:08:54.137Z,0.60
2023-04-03T06:09:58.200Z,0.62
2023-04-03T06:11:00.975Z,0.64
2023-04-03T06:12:03.993Z,0.66
2023-04-03T06:13:06.995Z,0.66
2023-04-03T06:14:10.148Z,0.67
2023-04-03T06:15:16.507Z,0.66
2023-04-03T06:16:18.824Z,0.67
2023-04-03T06:17:21.638Z,0.68
2023-04-03T06:18:24.065Z,0.68
2023-04-03T06:19:27.849Z,0.71
2023-04-03T06:20:33.046Z,0.68
2023-04-03T06:21:36.674Z,0.68
2023-04-03T06:22:40.265Z,0.64
2023-04-03T06:23:42.891Z,0.63
2023-04-03T06:24:45.674Z,0.62
2023-04-03T06:25:48.626Z,0.63
2023-04-03T06:26:52.279Z,0.63
2023-04-03T06:27:56.379Z,0.60
2023-04-03T06:28:58.315Z,0.61
2023-04-03T06:30:01.068Z,0.60
2023-04-03T06:31:04.239Z,0.58
2023-04-03T06:32:08.105Z,0.55
2023-04-03T06:33:11.721Z,0.54
2023-04-03T06:34:13.763Z,0.53
2023-04-03T06:35:17.919Z,0.51
2023-04-03T06:36:21.569Z,0.49
2023-04-03T06:37:26.914Z,0.46
2023-04-03T06:38:29.721Z,0.43
2023-04-03T06:39:31.602Z,0.42
2023-04-03T06:40:34.656Z,0.41
2023-04-03T06:41:37.271Z,0.42
2023-04-03T06:42:40.150Z,0.43
2023-04-03T06:43:47.124Z,0.43
2023-04-03T06:44:49.167Z,0.40
2023-04-03T06:45:52.289Z,0.39
2023-04-03T06:46:56.531Z,0.37
2023-04-03T06:47:59.828Z,0.35
2023-04-03T06:49:02.932Z,0.33
2023-04-03T06:50:07.984Z,0.30
2023-04-03T06:51:18.348Z,0.25
2023-04-03T06:52:21.675Z,0.19
2023-04-03T06:53:24.745Z,0.17
2023-04-03T06:54:31.832Z,0.15
2023-04-03T06:55:34.728Z,0.13
2023-04-03T06:56:36.700Z,0.14
2023-04-03T06:57:39.960Z,0.14
2023-04-03T06:58:42.536Z,0.15
2023-04-03T06:59:45.573Z,0.15
2023-04-03T07:00:48.296Z,0.16
2023-04-03T07:01:51.242Z,0.15
2023-04-03T07:02:54.580Z,0.17
2023-04-03T07:03:58.382Z,0.14
2023-04-03T07:05:00.336Z,0.13
2023-04-03T07:06:03.226Z,0.13
2023-04-03T07:07:09.339Z,0.13
2023-04-03T07:08:12.263Z,0.15
2023-04-03T07:09:15.078Z,0.18
2023-04-03T07:10:19.302Z,0.17
2023-04-03T07:11:22.681Z,0.20
2023-04-03T07:12:25.590Z,0.23
2023-04-03T07:13:27.716Z,0.27
2023-04-03T07:14:30.538Z,0.29
2023-04-03T07:15:32.384Z,0.33
2023-04-03T07:16:35.897Z,0.37
2023-04-03T07:17:38.984Z,0.38
2023-04-03T07:18:42.478Z,0.39
2023-04-03T07:19:45.416Z,0.38
2023-04-03T07:20:47.259Z,0.40
2023-04-03T07:21:53.985Z,0.40
2023-04-03T07:22:57.066Z,0.41
2023-04-03T07:23:59.058Z,0.43
2023-04-03T07:25:01.902Z,0.45
2023-04-03T07:26:04.056Z,0.46
2023-04-03T07:27:09.352Z,0.47
2023-04-03T07:28:11.170Z,0.48
2023-04-03T07:29:14.224Z,0.50
2023-04-03T07:30:16.292Z,0.50
2023-04-03T07:31:19.772Z,0.52
2023-04-03T07:32:23.930Z,0.54
2023-04-03T07:33:25.869Z,0.62
2023-04-03T07:34:30.016Z,0.63
2023-04-03T07:35:32.028Z,0.64
2023-04-03T07:36:34.871Z,0.67
2023-04-03T07:37:37.744Z,0.69
2023-04-03T07:38:41.512Z,0.67
2023-04-03T07:39:45.784Z,0.71
2023-04-03T07:40:49.432Z,0.72
2023-04-03T07:41:52.756Z,0.75
2023-04-03T07:42:57.450Z,0.75
2023-04-03T07:44:00.334Z,0.78
2023-04-03T07:45:02.656Z,0.78
2023-04-03T07:46:07.233Z,0.80
2023-04-03T07:47:09.517Z,0.78
2023-04-03T07:48:14.054Z,0.80
2023-04-03T07:49:15.920Z,0.85
2023-04-03T07:50:23.226Z,0.86
2023-04-03T07:51:30.826Z,0.86
2023-04-03T07:52:32.662Z,0.91
2023-04-03T07:53:35.988Z,0.99
2023-04-03T07:54:41.092Z,1.07
2023-04-03T07:55:44.856Z,1.10
2023-04-03T07:56:47.699Z,1.07
2023-04-03T07:57:49.632Z,1.06
2023-04-03T07:58:56.024Z,1.06
2023-04-03T07:59:58.823Z,1.09
2023-04-03T08:01:01.563Z,1.11
2023-04-03T08:02:05.932Z,1.14
2023-04-03T08:03:12.579Z,1.18
2023-04-03T08:04:16.985Z,1.27
2023-04-03T08:05:19.287Z,1.32
2023-04-03T08:06:32.959Z,1.38
2023-04-03T08:07:43.732Z,1.47
2023-04-03T08:08:45.583Z,1.59
2023-04-03T08:09:50.210Z,1.73
2023-04-03T08:10:56.748Z,1.84
2023-04-03T08:11:59.859Z,1.92
2023-04-03T08:13:02.094Z,2.02
2023-04-03T08:14:06.535Z,2.11
2023-04-03T08:15:09.826Z,2.20
2023-04-03T08:16:14.487Z,2.29
2023-04-03T08:17:17.513Z,2.39
2023-04-03T08:18:22.734Z,2.49
2023-04-03T08:19:26.838Z,2.57
2023-04-03T08:20:30.051Z,2.67
2023-04-03T08:21:34.147Z,2.79
2023-04-03T08:22:36.200Z,2.90
2023-04-03T08:23:39.439Z,2.97
2023-04-03T08:24:56.310Z,3.01
2023-04-03T08:26:01.895Z,3.06
2023-04-03T08:27:05.156Z,3.01
2023-04-03T08:28:07.665Z,2.96
2023-04-03T08:29:10.553Z,2.88
2023-04-03T08:30:15.635Z,2.83
2023-04-03T08:31:21.102Z,2.82
2023-04-03T08:32:24.134Z,2.74
2023-04-03T08:33:26.239Z,2.75
2023-04-03T08:34:29.000Z,2.80
2023-04-03T08:35:31.052Z,2.78
2023-04-03T08:36:39.415Z,2.76
2023-04-03T08:37:42.393Z,2.77
2023-04-03T08:38:44.273Z,2.80
2023-04-03T08:39:48.684Z,2.87
2023-04-03T08:41:02.120Z,2.95
2023-04-03T08:42:08.448Z,3.01
2023-04-03T08:43:28.279Z,3.05
2023-04-03T08:44:44.913Z,3.04
2023-04-03T08:45:52.586Z,3.04
2023-04-03T08:47:05.455Z,3.03
2023-04-03T08:48:14.106Z,3.00
2023-04-03T08:49:24.814Z,2.94
2023-04-03T08:50:32.516Z,2.94
2023-04-03T08:51:34.411Z,2.97
2023-04-03T08:52:41.496Z,2.99
2023-04-03T08:53:46.564Z,3.01
2023-04-03T08:54:54.978Z,3.04
2023-04-03T08:56:00.766Z,3.03
2023-04-03T08:57:06.149Z,3.07
2023-04-03T08:58:13.295Z,3.14
2023-04-03T08:59:24.012Z,3.20
2023-04-03T09:00:29.238Z,3.28
2023-04-03T09:01:36.565Z,3.37
2023-04-03T09:02:44.051Z,3.46
2023-04-03T09:03:46.860Z,3.55
2023-04-03T09:04:49.694Z,3.68
2023-04-03T09:05:57.797Z,3.85
2023-04-03T09:07:04.820Z,4.05
2023-04-03T09:08:15.507Z,4.25
2023-04-03T09:09:31.174Z,4.35
2023-04-03T09:10:35.564Z,4.43
2023-04-03T09:11:48.228Z,4.52
2023-04-03T09:12:59.509Z,4.58
2023-04-03T09:14:06.523Z,4.58
2023-04-03T09:15:20.031Z,4.56
2023-04-03T09:16:36.192Z,4.58
2023-04-03T09:17:44.626Z,4.60
2023-04-03T09:18:49.982Z,4.51
2023-04-03T09:19:59.313Z,4.46
2023-04-03T09:21:08.260Z,4.44
2023-04-03T09:22:16.188Z,4.43
2023-04-03T09:23:26.387Z,4.54
2023-04-03T09:24:29.988Z,4.79
2023-04-03T09:25:35.575Z,4.97
2023-04-03T09:26:44.538Z,5.11
2023-04-03T09:27:47.958Z,5.12
2023-04-03T09:28:51.402Z,5.11
2023-04-03T09:29:56.219Z,5.04
2023-04-03T09:30:59.036Z,4.98
2023-04-03T09:32:03.348Z,4.98
2023-04-03T09:33:08.404Z,4.93
2023-04-03T09:34:18.940Z,4.90
2023-04-03T09:35:32.909Z,4.83
2023-04-03T09:36:46.421Z,4.78
2023-04-03T09:37:50.661Z,4.93
2023-04-03T09:39:07.993Z,5.17
2023-04-03T09:40:30.661Z,5.36
2023-04-03T09:41:34.218Z,5.46
2023-04-03T09:42:46.252Z,5.62
2023-04-03T09:43:54.751Z,5.71
2023-04-03T09:45:00.018Z,5.79
2023-04-03T09:46:21.135Z,5.81
2023-04-03T09:47:26.034Z,5.78
2023-04-03T09:48:29.308Z,5.68
2023-04-03T09:49:32.189Z,5.65
2023-04-03T09:50:36.311Z,5.59
2023-04-03T09:51:39.308Z,5.51
2023-04-03T09:52:42.509Z,5.50
2023-04-03T09:53:46.793Z,5.46
2023-04-03T09:54:51.354Z,5.48
2023-04-03T09:55:53.343Z,5.51
2023-04-03T09:56:57.653Z,5.62
2023-04-03T09:58:02.245Z,5.89
2023-04-03T09:59:14.377Z,6.08
2023-04-03T10:00:23.820Z,6.07
2023-04-03T10:01:33.249Z,5.84
2023-04-03T10:02:40.137Z,5.66
2023-04-03T10:03:47.670Z,5.62
2023-04-03T10:05:02.559Z,5.54
2023-04-03T10:06:24.833Z,5.44
2023-04-03T10:07:30.350Z,5.37
2023-04-03T10:08:34.454Z,5.26
2023-04-03T10:09:38.735Z,5.19
2023-04-03T10:10:46.508Z,5.14
2023-04-03T10:12:06.668Z,5.20
2023-04-03T10:13:20.208Z,5.23
2023-04-03T10:14:26.152Z,5.33
2023-04-03T10:15:32.181Z,5.44
2023-04-03T10:16:40.293Z,5.73
2023-04-03T10:17:52.387Z,5.82
2023-04-03T10:19:03.601Z,5.87
2023-04-03T10:20:13.100Z,5.87
2023-04-03T10:21:31.258Z,5.78
2023-04-03T10:22:41.500Z,5.67
2023-04-03T10:23:47.368Z,5.58
2023-04-03T10:25:01.652Z,5.58
2023-04-03T10:26:13.981Z,5.58
2023-04-03T10:27:21.046Z,5.79
2023-04-03T10:28:26.545Z,6.10
2023-04-03T10:29:41.966Z,6.25
2023-04-03T10:30:51.500Z,6.43
2023-04-03T10:32:03.084Z,6.58
2023-04-03T10:33:18.222Z,6.72
2023-04-03T10:34:24.045Z,6.77
2023-04-03T10:35:34.782Z,6.72
2023-04-03T10:36:44.005Z,6.66
2023-04-03T10:37:56.581Z,6.82
2023-04-03T10:39:04.950Z,7.00
2023-04-03T10:40:27.092Z,7.35
2023-04-03T10:41:37.194Z,7.64
2023-04-03T10:42:46.055Z,7.94
2023-04-03T10:43:56.374Z,8.18
2023-04-03T10:45:05.850Z,8.22
2023-04-03T10:46:11.788Z,8.09
2023-04-03T10:47:18.468Z,7.89
2023-04-03T10:48:32.152Z,7.61
2023-04-03T10:49:57.186Z,7.28
2023-04-03T10:51:13.241Z,6.92
2023-04-03T10:52:20.121Z,6.65
2023-04-03T10:53:29.553Z,6.42
2023-04-03T10:54:36.593Z,6.27
2023-04-03T10:55:42.076Z,6.11
2023-04-03T10:56:57.884Z,6.06
2023-04-03T10:58:08.283Z,6.23
2023-04-03T10:59:23.603Z,6.45
2023-04-03T11:00:32.069Z,6.67
2023-04-03T11:01:38.022Z,6.74
2023-04-03T11:02:44.861Z,6.74
2023-04-03T11:03:49.254Z,6.75
2023-04-03T11:04:55.759Z,6.69
2023-04-03T11:05:58.724Z,6.59
2023-04-03T11:07:04.217Z,6.54
2023-04-03T11:08:19.782Z,6.37
2023-04-03T11:09:26.496Z,6.18
2023-04-03T11:10:34.637Z,5.99
2023-04-03T11:11:43.000Z,5.87
2023-04-03T11:12:50.429Z,5.87
2023-04-03T11:13:56.912Z,5.86
2023-04-03T11:15:00.031Z,5.87
2023-04-03T11:16:01.972Z,5.86
2023-04-03T11:17:14.330Z,5.98
2023-04-03T11:18:19.983Z,6.28
2023-04-03T11:19:25.224Z,6.70
2023-04-03T11:20:34.091Z,7.15
2023-04-03T11:21:41.594Z,7.69
2023-04-03T11:22:48.976Z,8.17
2023-04-03T11:23:53.311Z,8.50
2023-04-03T11:25:04.071Z,8.77
2023-04-03T11:26:13.553Z,8.74
2023-04-03T11:27:23.396Z,8.52
2023-04-03T11:28:28.055Z,8.27
2023-04-03T11:29:35.721Z,8.00
2023-04-03T11:30:44.059Z,7.61
2023-04-03T11:32:03.773Z,7.25
2023-04-03T11:33:31.475Z,7.12
2023-04-03T11:34:39.261Z,7.01
2023-04-03T11:35:44.446Z,6.91
2023-04-03T11:36:50.099Z,6.88
2023-04-03T11:37:54.393Z,7.00
2023-04-03T11:39:00.963Z,7.17
2023-04-03T11:40:05.988Z,7.44
2023-04-03T11:41:10.270Z,7.82
2023-04-03T11:42:16.917Z,8.15
2023-04-03T11:43:26.465Z,8.38
2023-04-03T11:44:39.335Z,8.70
2023-04-03T11:45:52.749Z,8.76
2023-04-03T11:46:58.225Z,8.64
2023-04-03T11:48:12.932Z,8.46
2023-04-03T11:49:59.156Z,8.02
2023-04-03T11:51:42.191Z,7.55
2023-04-03T11:53:28.139Z,7.11
2023-04-03T11:54:49.015Z,6.72
2023-04-03T11:56:03.052Z,6.50
2023-04-03T11:57:34.423Z,6.57
2023-04-03T11:58:37.340Z,7.00
2023-04-03T11:59:42.986Z,7.65
2023-04-03T12:01:11.320Z,8.26
2023-04-03T12:02:51.275Z,8.63
2023-04-03T12:04:08.918Z,8.58
2023-04-03T12:05:27.132Z,8.45
2023-04-03T12:07:20.019Z,8.21
2023-04-03T12:08:26.115Z,7.84
2023-04-03T12:09:36.497Z,7.61
2023-04-03T12:10:39.521Z,7.53
2023-04-03T12:11:41.854Z,7.74
2023-04-03T12:12:44.846Z,8.07
2023-04-03T12:14:05.824Z,8.67
2023-04-03T12:15:48.075Z,9.24
2023-04-03T12:16:52.204Z,9.57
2023-04-03T12:17:56.346Z,9.69
2023-04-03T12:19:03.771Z,9.77
2023-04-03T12:20:54.094Z,9.78
2023-04-03T12:22:12.649Z,9.39
2023-04-03T12:23:30.916Z,8.95
2023-04-03T12:24:34.841Z,8.54
2023-04-03T12:25:51.282Z,8.07
2023-04-03T12:27:05.543Z,7.70
2023-04-03T12:28:08.742Z,7.40
2023-04-03T12:29:16.672Z,7.15
2023-04-03T12:30:23.909Z,7.02
2023-04-03T12:31:42.116Z,7.26
2023-04-03T12:33:11.812Z,7.69
2023-04-03T12:34:29.448Z,8.21
2023-04-03T12:35:33.369Z,8.71
2023-04-03T12:36:44.892Z,9.12
2023-04-03T12:38:14.521Z,9.24
2023-04-03T12:39:38.885Z,9.06
2023-04-03T12:40:44.356Z,8.85
2023-04-03T12:41:53.668Z,8.57
2023-04-03T12:43:15.922Z,8.14
2023-04-03T12:44:30.392Z,7.73
2023-04-03T12:45:41.555Z,7.41
2023-04-03T12:46:48.145Z,7.21
2023-04-03T12:47:54.782Z,7.02
2023-04-03T12:48:59.615Z,6.93
2023-04-03T12:50:02.657Z,7.08
2023-04-03T12:51:07.517Z,7.41
2023-04-03T12:52:20.647Z,7.67
2023-04-03T12:53:25.242Z,8.04
2023-04-03T12:54:30.676Z,8.62
2023-04-03T12:55:33.658Z,9.09
2023-04-03T12:56:35.693Z,9.38
2023-04-03T12:57:38.987Z,9.35
2023-04-03T12:58:41.003Z,9.25
2023-04-03T12:59:44.703Z,9.06
2023-04-03T13:00:47.587Z,8.84
2023-04-03T13:01:58.877Z,8.54
2023-04-03T13:03:01.346Z,8.24
2023-04-03T13:04:05.167Z,7.94
2023-04-03T13:05:10.208Z,7.66
2023-04-03T13:06:19.601Z,7.45
2023-04-03T13:07:23.927Z,7.23
2023-04-03T13:08:27.034Z,7.03
2023-04-03T13:09:32.012Z,6.83
2023-04-03T13:10:46.176Z,6.72
2023-04-03T13:11:50.024Z,6.73
2023-04-03T13:12:55.019Z,6.78
2023-04-03T13:14:00.634Z,7.02
2023-04-03T13:15:14.242Z,7.36
2023-04-03T13:16:19.060Z,7.46
2023-04-03T13:17:51.135Z,7.30
2023-04-03T13:18:56.422Z,7.17
2023-04-03T13:20:12.341Z,7.05
2023-04-03T13:21:17.589Z,6.97
2023-04-03T13:22:30.851Z,6.87
2023-04-03T13:23:34.441Z,6.82
2023-04-03T13:24:40.750Z,6.94
2023-04-03T13:25:46.038Z,7.24
2023-04-03T13:26:47.897Z,7.63
2023-04-03T13:27:53.909Z,8.05
2023-04-03T13:29:04.047Z,8.30
2023-04-03T13:30:07.637Z,8.32
2023-04-03T13:31:18.897Z,8.26
2023-04-03T13:32:24.846Z,8.08
2023-04-03T13:33:32.443Z,7.91
2023-04-03T13:34:38.155Z,7.57
2023-04-03T13:35:44.014Z,7.30
2023-04-03T13:36:48.408Z,7.05
2023-04-03T13:37:55.354Z,6.78
2023-04-03T13:39:08.068Z,6.51
2023-04-03T13:40:12.810Z,6.34
2023-04-03T13:41:28.420Z,6.15
2023-04-03T13:42:34.696Z,5.92
2023-04-03T13:43:37.968Z,5.73
2023-04-03T13:44:41.591Z,5.59
2023-04-03T13:45:56.104Z,5.39
2023-04-03T13:47:01.544Z,5.27
2023-04-03T13:48:23.157Z,5.18
2023-04-03T13:49:34.397Z,5.06
2023-04-03T13:50:52.046Z,4.96
2023-04-03T13:52:06.648Z,4.96
2023-04-03T13:53:14.382Z,4.97
2023-04-03T13:54:23.200Z,4.96
2023-04-03T13:55:27.924Z,4.94
2023-04-03T13:56:34.622Z,4.90
2023-04-03T13:57:36.511Z,4.87
2023-04-03T13:58:39.956Z,4.84
2023-04-03T13:59:44.041Z,4.80
2023-04-03T14:00:51.407Z,4.74
2023-04-03T14:01:56.733Z,4.75
2023-04-03T14:02:59.838Z,4.92
2023-04-03T14:04:13.700Z,5.20
2023-04-03T14:05:22.100Z,5.33
2023-04-03T14:06:24.615Z,5.38
2023-04-03T14:07:28.486Z,5.40
2023-04-03T14:08:42.438Z,5.41
2023-04-03T14:09:48.824Z,5.37
2023-04-03T14:10:51.955Z,5.32
2023-04-03T14:11:58.015Z,5.26
2023-04-03T14:13:01.203Z,5.20
2023-04-03T14:14:07.277Z,5.11
2023-04-03T14:15:19.002Z,5.00
2023-04-03T14:16:24.296Z,4.91
2023-04-03T14:17:27.387Z,4.84
2023-04-03T14:18:30.265Z,4.79
2023-04-03T14:19:34.689Z,4.83
2023-04-03T14:20:39.473Z,4.90
2023-04-03T14:21:42.597Z,5.03
2023-04-03T14:22:46.555Z,5.15
2023-04-03T14:23:49.649Z,5.23
2023-04-03T14:24:52.762Z,5.33
2023-04-03T14:25:56.607Z,5.39
2023-04-03T14:26:58.453Z,5.44
2023-04-03T14:28:01.977Z,5.44
2023-04-03T14:29:04.356Z,5.37
2023-04-03T14:30:10.492Z,5.25
2023-04-03T14:31:12.576Z,5.14
2023-04-03T14:32:17.185Z,5.05
2023-04-03T14:33:21.301Z,4.92
2023-04-03T14:34:24.571Z,4.80
2023-04-03T14:35:28.248Z,4.66
2023-04-03T14:36:33.138Z,4.54